createdAt,value
2023-03-20T00:01:30.004Z,101494.44
2023-03-20T00:03:57.179Z,101498.94
2023-03-20T00:06:26.261Z,101495.44
2023-03-20T00:08:54.789Z,101499.03
2023-03-20T00:11:30.543Z,101501.94
2023-03-20T00:14:08.646Z,101495.75
2023-03-20T00:16:38.399Z,101494.22
2023-03-20T00:19:06.899Z,101494.38
2023-03-20T00:21:34.124Z,101500.75
2023-03-20T00:24:00.613Z,101499.00
2023-03-20T00:26:33.027Z,101500.25
2023-03-20T00:28:59.451Z,101502.00
2023-03-20T00:31:37.690Z,101504.66
2023-03-20T00:34:06.996Z,101514.59
2023-03-20T00:36:33.483Z,101520.81
2023-03-20T00:39:00.167Z,101523.72
2023-03-20T00:41:48.521Z,101516.19
2023-03-20T00:44:33.718Z,101517.03
2023-03-20T00:47:04.015Z,101514.25
2023-03-20T00:49:35.458Z,101516.03
2023-03-20T00:52:03.339Z,101509.59
2023-03-20T00:54:30.775Z,101506.31
2023-03-20T00:57:25.876Z,101500.03
2023-03-20T01:00:05.117Z,101497.28
2023-03-20T01:02:32.055Z,101493.13
2023-03-20T01:05:00.265Z,101490.47
2023-03-20T01:07:27.669Z,101494.78
2023-03-20T01:09:54.678Z,101496.94
2023-03-20T01:12:21.102Z,101500.34
2023-03-20T01:14:53.535Z,101501.03
2023-03-20T01:17:22.953Z,101503.88
2023-03-20T01:19:49.638Z,101502.91
2023-03-20T01:22:17.973Z,101492.16
2023-03-20T01:24:44.571Z,101493.13
2023-03-20T01:27:16.186Z,101496.88
2023-03-20T01:29:43.175Z,101499.47
2023-03-20T01:32:12.588Z,101496.09
2023-03-20T01:34:39.249Z,101499.69
2023-03-20T01:37:11.398Z,101505.84
2023-03-20T01:39:38.340Z,101512.94
2023-03-20T01:42:07.982Z,101517.41
2023-03-20T01:44:36.391Z,101519.00
2023-03-20T01:47:15.820Z,101516.41
2023-03-20T01:50:22.137Z,101506.81
2023-03-20T01:52:55.137Z,101500.72
2023-03-20T01:55:23.459Z,101489.16
2023-03-20T01:57:59.033Z,101493.63
2023-03-20T02:00:25.642Z,101493.47
2023-03-20T02:02:52.992Z,101496.31
2023-03-20T02:05:39.791Z,101497.25
2023-03-20T02:08:29.074Z,101500.06
2023-03-20T02:10:58.208Z,101501.63
2023-03-20T02:13:30.186Z,101507.75
2023-03-20T02:16:04.589Z,101504.16
2023-03-20T02:18:52.093Z,101520.09
2023-03-20T02:22:09.797Z,101518.50
2023-03-20T02:24:54.091Z,101518.44
2023-03-20T02:27:47.003Z,101514.28
2023-03-20T02:30:24.151Z,101506.97
2023-03-20T02:33:18.583Z,101498.06
2023-03-20T02:36:02.520Z,101502.66
2023-03-20T02:38:59.940Z,101505.75
2023-03-20T02:41:58.767Z,101510.81
2023-03-20T02:44:46.174Z,101511.88
2023-03-20T02:47:43.852Z,101518.31
2023-03-20T02:50:39.913Z,101522.78
2023-03-20T02:53:38.643Z,101519.19
2023-03-20T02:56:24.984Z,101518.41
2023-03-20T02:59:03.220Z,101520.91
2023-03-20T03:01:42.128Z,101517.53
2023-03-20T03:04:18.112Z,101524.16
2023-03-20T03:06:48.712Z,101517.00
2023-03-20T03:09:38.154Z,101521.22
2023-03-20T03:12:14.242Z,101541.66
2023-03-20T03:14:46.477Z,101523.94
2023-03-20T03:17:17.574Z,101528.19
2023-03-20T03:19:48.305Z,101505.06
2023-03-20T03:22:18.383Z,101502.81
2023-03-20T03:24:47.584Z,101487.63
2023-03-20T03:27:26.017Z,101484.09
2023-03-20T03:29:58.983Z,101487.41
2023-03-20T03:32:33.309Z,101479.47
2023-03-20T03:35:01.440Z,101461.81
2023-03-20T03:37:42.972Z,101445.88
2023-03-20T03:40:28.925Z,101451.00
2023-03-20T03:43:07.615Z,101461.75
2023-03-20T03:45:43.528Z,101471.63
2023-03-20T03:48:19.015Z,101451.78
2023-03-20T03:51:00.332Z,101473.91
2023-03-20T03:53:32.072Z,101476.97
2023-03-20T03:56:03.900Z,101489.44
2023-03-20T03:58:43.175Z,101495.47
2023-03-20T04:01:14.035Z,101503.63
2023-03-20T04:03:46.821Z,101510.56
2023-03-20T04:06:16.093Z,101507.00
2023-03-20T04:08:43.516Z,101502.41
2023-03-20T04:11:22.388Z,101505.97
2023-03-20T04:13:50.585Z,101503.19
2023-03-20T04:16:18.211Z,101493.44
2023-03-20T04:18:46.317Z,101495.41
2023-03-20T04:21:15.990Z,101489.97
2023-03-20T04:23:43.415Z,101488.09
2023-03-20T04:26:09.824Z,101482.19
2023-03-20T04:28:36.576Z,101470.53
2023-03-20T04:31:21.747Z,101462.78
2023-03-20T04:34:07.092Z,101478.78
2023-03-20T04:37:03.199Z,101475.38
2023-03-20T04:39:42.932Z,101466.50
2023-03-20T04:42:11.632Z,101459.81
2023-03-20T04:44:37.995Z,101465.00
2023-03-20T04:47:04.380Z,101464.28
2023-03-20T04:49:33.096Z,101447.34
2023-03-20T04:51:59.658Z,101441.38
2023-03-20T04:54:40.898Z,101441.69
2023-03-20T04:57:07.249Z,101431.13
2023-03-20T04:59:33.920Z,101438.22
2023-03-20T05:02:00.929Z,101449.72
2023-03-20T05:04:27.871Z,101453.63
2023-03-20T05:06:54.231Z,101446.69
2023-03-20T05:09:23.905Z,101446.50
2023-03-20T05:11:51.547Z,101451.13
2023-03-20T05:14:37.265Z,101466.38
2023-03-20T05:17:24.896Z,101466.78
2023-03-20T05:20:10.902Z,101462.56
2023-03-20T05:23:06.537Z,101470.75
2023-03-20T05:26:05.581Z,101462.69
2023-03-20T05:28:51.846Z,101470.59
2023-03-20T05:31:36.735Z,101472.69
2023-03-20T05:34:12.556Z,101471.75
2023-03-20T05:37:02.107Z,101476.88
2023-03-20T05:39:46.937Z,101475.22
2023-03-20T05:42:39.690Z,101470.81
2023-03-20T05:45:06.496Z,101468.31
2023-03-20T05:47:45.890Z,101469.69
2023-03-20T05:50:45.776Z,101474.22
2023-03-20T05:53:37.192Z,101476.34
2023-03-20T05:56:17.356Z,101472.56
2023-03-20T05:59:02.633Z,101474.34
2023-03-20T06:01:48.078Z,101469.97
2023-03-20T06:04:24.654Z,101473.22
2023-03-20T06:07:14.181Z,101461.47
2023-03-20T06:09:43.288Z,101471.13
2023-03-20T06:12:12.667Z,101470.91
2023-03-20T06:14:39.577Z,101481.66
2023-03-20T06:17:07.802Z,101480.78
2023-03-20T06:19:34.418Z,101478.53
2023-03-20T06:22:00.949Z,101480.84
2023-03-20T06:24:27.414Z,101483.50
2023-03-20T06:26:54.023Z,101484.09
2023-03-20T06:29:20.462Z,101489.91
2023-03-20T06:31:49.289Z,101481.78
2023-03-20T06:34:23.385Z,101494.19
2023-03-20T06:36:50.086Z,101497.06
2023-03-20T06:39:20.276Z,101502.69
2023-03-20T06:41:47.341Z,101500.63
2023-03-20T06:44:13.787Z,101505.00
2023-03-20T06:47:12.228Z,101510.53
2023-03-20T06:49:40.151Z,101518.53
2023-03-20T06:52:08.910Z,101523.59
2023-03-20T06:54:36.737Z,101518.25
2023-03-20T06:57:03.128Z,101516.50
2023-03-20T06:59:29.517Z,101521.72
2023-03-20T07:01:57.183Z,101522.38
2023-03-20T07:04:24.041Z,101523.44
2023-03-20T07:06:53.799Z,101523.19
2023-03-20T07:09:21.995Z,101527.06
2023-03-20T07:11:48.402Z,101525.97
2023-03-20T07:14:15.078Z,101528.63
2023-03-20T07:16:56.271Z,101527.75
2023-03-20T07:19:23.147Z,101533.91
2023-03-20T07:21:59.352Z,101530.28
2023-03-20T07:24:26.219Z,101539.06
2023-03-20T07:26:52.601Z,101545.06
2023-03-20T07:29:19.819Z,101543.13
2023-03-20T07:31:46.321Z,101535.84
2023-03-20T07:34:21.091Z,101544.38
2023-03-20T07:36:47.463Z,101556.75
2023-03-20T07:39:18.013Z,101556.75
2023-03-20T07:41:53.128Z,101556.72
2023-03-20T07:44:35.565Z,101558.31
2023-03-20T07:47:08.328Z,101554.63
2023-03-20T07:49:34.710Z,101554.13
2023-03-20T07:52:01.660Z,101553.53
2023-03-20T07:54:30.707Z,101556.72
2023-03-20T07:56:57.644Z,101552.03
2023-03-20T07:59:24.186Z,101560.69
2023-03-20T08:01:50.628Z,101554.44
2023-03-20T08:04:19.469Z,101559.25
2023-03-20T08:06:46.308Z,101560.69
2023-03-20T08:09:12.794Z,101564.94
2023-03-20T08:11:39.129Z,101558.50
2023-03-20T08:14:05.825Z,101553.75
2023-03-20T08:16:32.267Z,101558.66
2023-03-20T08:19:01.415Z,101559.13
2023-03-20T08:21:29.102Z,101554.31
2023-03-20T08:23:55.820Z,101560.94
2023-03-20T08:26:23.142Z,101563.31
2023-03-20T08:28:50.479Z,101554.75
2023-03-20T08:31:18.029Z,101557.41
2023-03-20T08:33:45.887Z,101572.97
2023-03-20T08:36:12.375Z,101562.59
2023-03-20T08:38:38.865Z,101568.25
2023-03-20T08:41:06.888Z,101563.09
2023-03-20T08:43:33.384Z,101558.50
2023-03-20T08:45:59.722Z,101563.91
2023-03-20T08:48:26.216Z,101566.16
2023-03-20T08:50:52.585Z,101562.59
2023-03-20T08:53:21.702Z,101555.31
2023-03-20T08:55:49.937Z,101560.66
2023-03-20T08:58:16.963Z,101552.41
2023-03-20T09:00:43.890Z,101551.69
2023-03-20T09:03:14.739Z,101553.34
2023-03-20T09:05:43.825Z,101553.09
2023-03-20T09:08:10.134Z,101553.91
2023-03-20T09:10:36.634Z,101553.97
2023-03-20T09:13:15.523Z,101556.81
2023-03-20T09:15:49.446Z,101558.31
2023-03-20T09:18:15.852Z,101554.53
2023-03-20T09:20:42.182Z,101561.69
2023-03-20T09:23:08.524Z,101556.97
2023-03-20T09:25:35.224Z,101562.38
2023-03-20T09:28:01.729Z,101560.94
2023-03-20T09:30:28.055Z,101568.03
2023-03-20T09:32:54.418Z,101559.69
2023-03-20T09:35:21.233Z,101562.19
2023-03-20T09:37:47.828Z,101569.44
2023-03-20T09:40:43.251Z,101564.41
2023-03-20T09:43:43.825Z,101568.88
2023-03-20T09:46:19.564Z,101567.28
2023-03-20T09:49:12.213Z,101569.91
2023-03-20T09:51:49.843Z,101570.94
2023-03-20T09:54:52.728Z,101570.47
2023-03-20T09:57:26.944Z,101574.25
2023-03-20T10:00:01.632Z,101578.34
2023-03-20T10:02:45.284Z,101579.69
2023-03-20T10:05:26.167Z,101574.34
2023-03-20T10:07:58.749Z,101581.00
2023-03-20T10:10:55.118Z,101568.59
2023-03-20T10:13:40.055Z,101567.75
2023-03-20T10:16:40.451Z,101575.44
2023-03-20T10:19:24.567Z,101568.28
2023-03-20T10:22:00.831Z,101565.53
2023-03-20T10:24:32.345Z,101562.63
2023-03-20T10:27:21.544Z,101561.06
2023-03-20T10:29:59.470Z,101564.03
2023-03-20T10:32:33.655Z,101555.72
2023-03-20T10:35:20.284Z,101551.09
2023-03-20T10:38:23.908Z,101549.59
2023-03-20T10:40:51.010Z,101559.13
2023-03-20T10:43:30.855Z,101552.97
2023-03-20T10:46:32.205Z,101546.66
2023-03-20T10:49:14.353Z,101543.44
2023-03-20T10:51:51.135Z,101533.00
2023-03-20T10:54:27.926Z,101540.78
2023-03-20T10:56:58.966Z,101541.81
2023-03-20T10:59:40.303Z,101541.41
2023-03-20T11:02:14.799Z,101537.16
2023-03-20T11:04:41.253Z,101535.69
2023-03-20T11:07:24.266Z,101540.47
2023-03-20T11:10:07.899Z,101539.44
2023-03-20T11:12:35.841Z,101532.31
2023-03-20T11:15:14.588Z,101530.09
2023-03-20T11:17:41.456Z,101526.72
2023-03-20T11:20:08.438Z,101524.81
2023-03-20T11:22:36.843Z,101524.16
2023-03-20T11:25:05.299Z,101523.13
2023-03-20T11:27:36.202Z,101530.41
2023-03-20T11:30:06.037Z,101525.13
2023-03-20T11:32:40.790Z,101531.81
2023-03-20T11:35:33.427Z,101522.81
2023-03-20T11:38:15.340Z,101515.69
2023-03-20T11:40:41.704Z,101528.06
2023-03-20T11:43:14.689Z,101525.06
2023-03-20T11:45:43.883Z,101512.72
2023-03-20T11:48:21.914Z,101515.50
2023-03-20T11:50:51.869Z,101524.28
2023-03-20T11:53:40.583Z,101516.59
2023-03-20T11:56:23.932Z,101525.25
2023-03-20T11:59:09.084Z,101526.31
2023-03-20T12:01:46.901Z,101517.22
2023-03-20T12:04:17.132Z,101514.00
2023-03-20T12:06:53.994Z,101513.94
2023-03-20T12:09:49.391Z,101510.47
2023-03-20T12:12:43.632Z,101514.47
2023-03-20T12:15:12.745Z,101507.97
2023-03-20T12:18:01.077Z,101515.13
2023-03-20T12:20:59.491Z,101512.03
2023-03-20T12:23:34.454Z,101520.91
2023-03-20T12:26:10.891Z,101512.09
2023-03-20T12:28:50.206Z,101511.03
2023-03-20T12:31:50.501Z,101505.22
2023-03-20T12:34:34.839Z,101517.47
2023-03-20T12:37:02.251Z,101509.75
2023-03-20T12:39:36.298Z,101504.13
2023-03-20T12:42:23.040Z,101499.25
2023-03-20T12:45:03.971Z,101500.09
2023-03-20T12:47:47.134Z,101496.63
2023-03-20T12:50:39.642Z,101497.50
2023-03-20T12:53:11.947Z,101504.88
2023-03-20T12:55:59.014Z,101496.25
2023-03-20T12:58:45.833Z,101499.31
2023-03-20T13:01:22.111Z,101495.22
2023-03-20T13:03:55.440Z,101479.88
2023-03-20T13:06:40.507Z,101486.31
2023-03-20T13:09:45.156Z,101490.56
2023-03-20T13:12:45.820Z,101487.03
2023-03-20T13:15:48.684Z,101484.16
2023-03-20T13:18:38.781Z,101488.00
2023-03-20T13:21:24.337Z,101483.91
2023-03-20T13:24:29.978Z,101483.19
2023-03-20T13:27:09.947Z,101476.97
2023-03-20T13:29:57.892Z,101477.19
2023-03-20T13:32:36.599Z,101472.34
2023-03-20T13:35:27.153Z,101471.19
2023-03-20T13:38:15.358Z,101475.13
2023-03-20T13:40:44.157Z,101469.97
2023-03-20T13:43:34.725Z,101471.25
2023-03-20T13:46:08.901Z,101466.88
2023-03-20T13:48:40.560Z,101476.16
2023-03-20T13:51:31.434Z,101479.28
2023-03-20T13:53:57.843Z,101472.28
2023-03-20T13:56:47.504Z,101464.09
2023-03-20T13:59:41.555Z,101461.94
2023-03-20T14:02:31.287Z,101464.75
2023-03-20T14:05:12.293Z,101453.13
2023-03-20T14:07:44.383Z,101455.22
2023-03-20T14:10:24.191Z,101451.00
2023-03-20T14:13:00.987Z,101449.03
2023-03-20T14:15:32.126Z,101451.34
2023-03-20T14:18:07.824Z,101453.44
2023-03-20T14:20:38.545Z,101455.41
2023-03-20T14:23:07.195Z,101450.50
2023-03-20T14:25:40.621Z,101454.13
2023-03-20T14:28:12.644Z,101437.31
2023-03-20T14:30:44.247Z,101441.25
2023-03-20T14:33:16.661Z,101442.94
2023-03-20T14:35:48.889Z,101437.53
2023-03-20T14:38:31.855Z,101447.91
2023-03-20T14:41:19.642Z,101425.38
2023-03-20T14:44:01.198Z,101429.97
2023-03-20T14:46:51.755Z,101425.31
2023-03-20T14:49:36.669Z,101425.47
2023-03-20T14:52:18.194Z,101432.13
2023-03-20T14:54:52.139Z,101415.47
2023-03-20T14:57:37.633Z,101417.53
2023-03-20T15:00:17.789Z,101417.19
2023-03-20T15:02:48.019Z,101412.28
2023-03-20T15:05:25.653Z,101406.25
2023-03-20T15:07:53.171Z,101403.59
2023-03-20T15:10:20.143Z,101399.78
2023-03-20T15:12:48.004Z,101406.16
2023-03-20T15:15:27.735Z,101407.63
2023-03-20T15:17:54.710Z,101400.22
2023-03-20T15:20:25.805Z,101398.16
2023-03-20T15:22:58.153Z,101390.22
2023-03-20T15:25:40.785Z,101392.19
2023-03-20T15:28:09.250Z,101385.81
2023-03-20T15:30:38.535Z,101396.34
2023-03-20T15:33:06.348Z,101386.94
2023-03-20T15:35:33.488Z,101389.84
2023-03-20T15:38:06.057Z,101388.38
2023-03-20T15:40:47.658Z,101373.91
2023-03-20T15:43:24.882Z,101378.28
2023-03-20T15:46:02.869Z,101374.00
2023-03-20T15:48:36.692Z,101383.19
2023-03-20T15:51:05.413Z,101366.31
2023-03-20T15:53:37.567Z,101367.94
2023-03-20T15:56:18.711Z,101370.44
2023-03-20T15:58:48.831Z,101364.94
2023-03-20T16:01:18.528Z,101366.06
2023-03-20T16:03:45.136Z,101359.00
2023-03-20T16:06:15.229Z,101365.47
2023-03-20T16:08:41.762Z,101362.78
2023-03-20T16:11:13.836Z,101361.03
2023-03-20T16:13:43.539Z,101365.19
2023-03-20T16:16:17.413Z,101357.59
2023-03-20T16:18:47.687Z,101358.31
2023-03-20T16:21:23.217Z,101366.75
2023-03-20T16:23:53.740Z,101363.13
2023-03-20T16:26:23.525Z,101370.28
2023-03-20T16:28:53.881Z,101371.94
2023-03-20T16:31:26.087Z,101372.50
2023-03-20T16:33:52.961Z,101374.41
2023-03-20T16:36:29.666Z,101374.22
2023-03-20T16:38:57.376Z,101377.13
2023-03-20T16:41:38.147Z,101375.44
2023-03-20T16:44:13.778Z,101376.00
2023-03-20T16:47:14.072Z,101378.41
2023-03-20T16:50:02.137Z,101375.56
2023-03-20T16:52:31.042Z,101373.00
2023-03-20T16:54:59.795Z,101375.31
2023-03-20T16:57:28.521Z,101379.94
2023-03-20T17:00:04.575Z,101378.63
2023-03-20T17:02:36.337Z,101361.72
2023-03-20T17:05:12.059Z,101375.38
2023-03-20T17:07:38.874Z,101374.53
2023-03-20T17:10:17.021Z,101385.13
2023-03-20T17:12:46.476Z,101380.19
2023-03-20T17:15:18.302Z,101376.59
2023-03-20T17:17:45.007Z,101374.47
2023-03-20T17:20:19.837Z,101376.34
2023-03-20T17:22:46.675Z,101374.88
2023-03-20T17:25:13.468Z,101376.75
2023-03-20T17:27:40.802Z,101372.50
2023-03-20T17:30:18.015Z,101381.16
2023-03-20T17:32:44.504Z,101382.97
2023-03-20T17:35:10.842Z,101382.03
2023-03-20T17:37:37.446Z,101384.75
2023-03-20T17:40:04.216Z,101386.56
2023-03-20T17:42:31.364Z,101387.44
2023-03-20T17:44:59.216Z,101382.25
2023-03-20T17:47:27.657Z,101378.56
2023-03-20T17:49:54.791Z,101385.72
2023-03-20T17:52:26.329Z,101393.88
2023-03-20T17:54:52.788Z,101389.31
2023-03-20T17:57:26.083Z,101385.78
2023-03-20T17:59:52.552Z,101397.25
2023-03-20T18:02:19.225Z,101386.16
2023-03-20T18:04:46.309Z,101385.50
2023-03-20T18:07:13.008Z,101386.50
2023-03-20T18:09:40.773Z,101392.59
2023-03-20T18:12:10.712Z,101385.38
2023-03-20T18:14:37.572Z,101384.34
2023-03-20T18:17:04.642Z,101383.75
2023-03-20T18:19:31.156Z,101385.25
2023-03-20T18:21:57.810Z,101393.41
2023-03-20T18:24:24.315Z,101388.84
2023-03-20T18:26:51.852Z,101386.78
2023-03-20T18:29:18.834Z,101391.09
2023-03-20T18:31:45.665Z,101388.06
2023-03-20T18:34:12.091Z,101391.09
2023-03-20T18:36:38.639Z,101382.78
2023-03-20T18:39:05.774Z,101385.88
2023-03-20T18:41:33.342Z,101386.59
2023-03-20T18:43:59.816Z,101382.03
2023-03-20T18:46:27.039Z,101389.09
2023-03-20T18:48:53.864Z,101385.41
2023-03-20T18:51:21.101Z,101380.06
2023-03-20T18:53:47.586Z,101378.16
2023-03-20T18:56:23.043Z,101379.88
2023-03-20T18:58:49.733Z,101377.13
2023-03-20T19:01:16.374Z,101375.44
2023-03-20T19:03:44.969Z,101371.31
2023-03-20T19:06:19.209Z,101380.28
2023-03-20T19:08:46.737Z,101369.75
2023-03-20T19:11:20.494Z,101367.00
2023-03-20T19:13:51.006Z,101364.38
2023-03-20T19:16:23.109Z,101373.38
2023-03-20T19:18:51.118Z,101372.50
2023-03-20T19:21:18.063Z,101372.25
2023-03-20T19:23:44.561Z,101379.38
2023-03-20T19:26:21.335Z,101373.13
2023-03-20T19:28:48.858Z,101385.50
2023-03-20T19:31:15.416Z,101365.25
2023-03-20T19:33:41.862Z,101370.19
2023-03-20T19:36:18.969Z,101372.94
2023-03-20T19:38:45.494Z,101369.50
2023-03-20T19:41:11.974Z,101364.06
2023-03-20T19:43:51.646Z,101367.28
2023-03-20T19:46:37.695Z,101364.59
2023-03-20T19:49:05.914Z,101371.91
2023-03-20T19:51:32.648Z,101360.19
2023-03-20T19:53:58.976Z,101358.31
2023-03-20T19:56:25.570Z,101360.44
2023-03-20T19:58:52.180Z,101364.84
2023-03-20T20:01:21.310Z,101361.94
2023-03-20T20:03:49.729Z,101359.41
2023-03-20T20:06:16.628Z,101354.59
2023-03-20T20:08:48.464Z,101354.78
2023-03-20T20:11:16.611Z,101352.94
2023-03-20T20:14:04.266Z,101349.25
2023-03-20T20:16:29.741Z,101345.97
2023-03-20T20:18:56.126Z,101348.72
2023-03-20T20:24:09.382Z,101341.91
2023-03-20T20:26:40.539Z,101341.75
2023-03-20T20:29:14.309Z,101342.44
2023-03-20T20:31:40.717Z,101338.22
2023-03-20T20:35:14.354Z,101339.91
2023-03-20T20:39:40.029Z,101340.44
2023-03-20T20:42:06.459Z,101336.50
2023-03-20T20:44:32.998Z,101342.44
2023-03-20T20:46:59.364Z,101348.66
2023-03-20T20:49:25.730Z,101344.09
2023-03-20T20:51:52.046Z,101339.66
2023-03-20T20:54:18.899Z,101342.25
2023-03-20T20:56:45.258Z,101332.53
2023-03-20T20:59:11.639Z,101335.03
2023-03-20T21:01:38.044Z,101333.13
2023-03-20T21:04:04.406Z,101333.13
2023-03-20T21:07:03.462Z,101331.50
2023-03-20T21:09:17.318Z,101330.28
2023-03-20T21:11:43.691Z,101326.16
2023-03-20T21:14:10.513Z,101331.25
2023-03-20T21:16:36.860Z,101334.84
2023-03-20T21:19:03.262Z,101332.97
2023-03-20T21:21:30.212Z,101334.41
2023-03-20T21:23:57.038Z,101328.31
2023-03-20T21:26:23.581Z,101337.19
2023-03-20T21:28:49.928Z,101326.91
2023-03-20T21:31:28.468Z,101334.94
2023-03-20T21:33:57.690Z,101340.03
2023-03-20T21:36:24.119Z,101331.22
2023-03-20T21:39:08.608Z,101328.56
2023-03-20T21:41:37.690Z,101330.53
2023-03-20T21:44:06.263Z,101327.50
2023-03-20T21:56:03.376Z,101329.56
2023-03-20T22:03:30.807Z,101326.66
2023-03-20T22:12:18.419Z,101331.16
2023-03-20T22:17:51.320Z,101348.75
2023-03-20T22:23:32.354Z,101349.09
2023-03-20T22:26:19.930Z,101344.25
2023-03-20T22:29:03.076Z,101345.03
2023-03-20T22:42:49.647Z,101337.28
2023-03-20T22:45:09.139Z,101340.03
2023-03-20T22:47:36.183Z,101336.25
2023-03-20T22:50:02.713Z,101338.91
2023-03-20T22:52:42.019Z,101331.81
2023-03-20T22:55:15.939Z,101324.31
2023-03-20T22:57:50.115Z,101327.00
2023-03-20T23:00:22.516Z,101319.94
2023-03-20T23:02:48.868Z,101322.63
2023-03-20T23:05:15.315Z,101325.38
2023-03-20T23:07:41.998Z,101322.75
2023-03-20T23:10:09.641Z,101327.84
2023-03-20T23:12:39.140Z,101325.19
2023-03-20T23:15:06.774Z,101320.34
2023-03-20T23:17:33.101Z,101326.41
2023-03-20T23:20:10.915Z,101322.69
2023-03-20T23:22:38.513Z,101327.16
2023-03-20T23:25:14.442Z,101312.50
2023-03-20T23:27:44.779Z,101312.25
2023-03-20T23:30:11.782Z,101313.69
2023-03-20T23:32:39.591Z,101312.06
2023-03-20T23:35:07.491Z,101308.59
2023-03-20T23:37:34.685Z,101313.09
2023-03-20T23:40:01.128Z,101306.53
2023-03-20T23:42:30.748Z,101301.56
2023-03-20T23:45:02.179Z,101303.09
2023-03-20T23:47:44.673Z,101308.53
2023-03-20T23:50:17.243Z,101302.34
2023-03-20T23:52:57.138Z,101300.25
2023-03-20T23:55:27.613Z,101295.75
2023-03-20T23:57:53.935Z,101293.78
